Time;durP1;ratioP1;P1;durP2;ratioP2;P2;SDS_P1;SDS_P2;PMS_P1;PMS_P2;Temp;Humidity;BMP_temperature;BMP_pressure;BME280_temperature;BME280_humidity;BME280_pressure;Samples;Min_cycle;Max_cycle;Signal;HPM_P1;HPM_P2
2024/04/19 00:00:49;;;;;;;;;;;8.50;99.90;;;;;;5336706;26;19930;-80
2024/04/19 00:03:15;;;;;;;;;;;8.50;99.90;;;;;;5341678;26;19965;-80
2024/04/19 00:05:41;;;;;;;;;;;8.50;99.90;;;;;;5347506;26;20265;-78
2024/04/19 00:08:07;;;;;;;;;;;8.50;99.90;;;;;;5294958;26;20174;-80
2024/04/19 00:10:35;;;;;;;;;;;8.50;99.90;;;;;;5330009;26;20773;-78
2024/04/19 00:13:01;;;;;;;;;;;8.50;99.90;;;;;;5344562;26;19930;-80
2024/04/19 00:15:27;;;;;;;;;;;8.40;99.90;;;;;;5299534;26;19938;-80
2024/04/19 00:17:53;;;;;;;;;;;8.40;99.90;;;;;;5307179;26;20332;-80
2024/04/19 00:20:20;;;;;;;;;;;8.30;99.90;;;;;;5255523;26;19944;-80
2024/04/19 00:22:46;;;;;;;;;;;8.20;99.90;;;;;;5301355;26;20377;-80
2024/04/19 00:25:11;;;;;;;;;;;8.30;99.90;;;;;;5321822;26;19937;-80
2024/04/19 00:27:37;;;;;;;;;;;8.20;99.90;;;;;;5322375;26;19929;-80
2024/04/19 00:30:03;;;;;;;;;;;8.20;99.90;;;;;;5326646;26;20524;-80
2024/04/19 00:32:29;;;;;;;;;;;8.10;99.90;;;;;;5322085;26;20358;-80
2024/04/19 00:34:54;;;;;;;;;;;8.10;99.90;;;;;;5294628;26;19929;-80
2024/04/19 00:37:23;;;;;;;;;;;8.10;99.90;;;;;;5263523;26;19930;-80
2024/04/19 00:39:49;;;;;;;;;;;8.10;99.90;;;;;;5282073;26;20387;-80
2024/04/19 00:42:14;;;;;;;;;;;8.10;99.90;;;;;;5316718;26;20013;-80
2024/04/19 00:44:40;;;;;;;;;;;8.10;99.90;;;;;;5330771;26;19936;-80
2024/04/19 00:47:06;;;;;;;;;;;8.10;99.90;;;;;;5315126;26;19930;-80
2024/04/19 00:49:32;;;;;;;;;;;8.10;99.90;;;;;;5263374;26;19962;-80
2024/04/19 00:51:57;;;;;;;;;;;8.00;99.90;;;;;;5262893;26;19930;-80
2024/04/19 00:54:23;;;;;;;;;;;8.10;99.90;;;;;;5302919;26;19942;-80
2024/04/19 00:56:49;;;;;;;;;;;8.00;99.90;;;;;;5308560;26;19937;-80
2024/04/19 00:59:14;;;;;;;;;;;8.10;99.90;;;;;;5283493;26;19933;-80
2024/04/19 01:01:40;;;;;;;;;;;8.00;99.90;;;;;;5326337;26;20842;-80
2024/04/19 01:04:05;;;;;;;;;;;8.00;99.90;;;;;;5353889;26;19930;-80
2024/04/19 01:06:31;;;;;;;;;;;8.10;99.90;;;;;;5290987;26;19936;-80
2024/04/19 01:08:57;;;;;;;;;;;8.00;99.90;;;;;;5295749;26;20000;-80
2024/04/19 01:11:25;;;;;;;;;;;8.10;99.90;;;;;;5297273;26;20261;-79
2024/04/19 01:13:50;;;;;;;;;;;8.00;99.90;;;;;;5297306;26;19945;-80
2024/04/19 01:16:18;;;;;;;;;;;8.10;99.90;;;;;;5301855;26;19930;-80
2024/04/19 01:18:44;;;;;;;;;;;8.10;99.90;;;;;;5307212;26;19937;-80
2024/04/19 01:21:13;;;;;;;;;;;8.10;99.90;;;;;;5291253;26;19977;-80
2024/04/19 01:23:38;;;;;;;;;;;8.10;99.90;;;;;;5319424;26;20013;-80
2024/04/19 01:26:04;;;;;;;;;;;8.00;99.90;;;;;;5319321;26;19934;-80
2024/04/19 01:28:30;;;;;;;;;;;8.10;99.90;;;;;;5355631;26;19995;-80
2024/04/19 01:30:55;;;;;;;;;;;8.10;99.90;;;;;;5360033;26;20264;-80
2024/04/19 01:33:21;;;;;;;;;;;8.10;99.90;;;;;;5330917;26;19929;-80
2024/04/19 01:35:47;;;;;;;;;;;8.10;99.90;;;;;;5346327;26;19959;-80
2024/04/19 01:38:12;;;;;;;;;;;8.00;99.90;;;;;;5301095;26;19930;-80
2024/04/19 01:40:38;;;;;;;;;;;8.00;99.90;;;;;;5318933;26;19930;-80
2024/04/19 01:43:06;;;;;;;;;;;8.00;99.90;;;;;;5330850;26;20009;-80
2024/04/19 01:45:32;;;;;;;;;;;8.00;99.90;;;;;;5263249;26;19942;-80
2024/04/19 01:47:59;;;;;;;;;;;7.90;99.90;;;;;;5262312;26;19997;-80
2024/04/19 01:50:24;;;;;;;;;;;7.90;99.90;;;;;;5293312;26;19931;-80
2024/04/19 01:52:50;;;;;;;;;;;7.90;99.90;;;;;;5295531;26;21962;-80
2024/04/19 01:55:17;;;;;;;;;;;7.90;99.90;;;;;;5296511;26;19936;-80
2024/04/19 01:57:43;;;;;;;;;;;7.90;99.90;;;;;;5299489;26;19997;-80
2024/04/19 02:00:09;;;;;;;;;;;7.90;99.90;;;;;;5296796;26;19936;-80
2024/04/19 02:02:35;;;;;;;;;;;7.90;99.90;;;;;;5353253;26;19930;-80
2024/04/19 02:05:00;;;;;;;;;;;7.90;99.90;;;;;;5324284;26;20246;-79
2024/04/19 02:07:26;;;;;;;;;;;7.90;99.90;;;;;;5299049;26;19940;-80
2024/04/19 02:09:52;;;;;;;;;;;7.90;99.90;;;;;;5318340;26;20242;-79
2024/04/19 02:12:18;;;;;;;;;;;7.90;99.90;;;;;;5372873;26;19955;-80
2024/04/19 02:14:43;;;;;;;;;;;7.90;99.90;;;;;;5295609;26;19929;-80
2024/04/19 02:17:09;;;;;;;;;;;7.90;99.90;;;;;;5322828;26;19974;-80
2024/04/19 02:19:39;;;;;;;;;;;7.80;99.90;;;;;;5343679;26;19930;-80
2024/04/19 02:22:05;;;;;;;;;;;7.70;99.90;;;;;;5322183;26;19930;-80
2024/04/19 02:24:31;;;;;;;;;;;7.70;99.90;;;;;;5311810;26;19930;-80
2024/04/19 02:26:59;;;;;;;;;;;7.70;99.90;;;;;;5336480;26;19938;-80
2024/04/19 02:32:09;;;;;;;;;;;7.70;99.90;;;;;;5294422;26;19937;-80
2024/04/19 02:34:35;;;;;;;;;;;7.60;99.90;;;;;;5299388;26;19938;-79
2024/04/19 02:37:00;;;;;;;;;;;7.70;99.90;;;;;;5319143;26;19930;-79
2024/04/19 02:39:26;;;;;;;;;;;7.70;99.90;;;;;;5290551;26;19930;-79
2024/04/19 02:41:52;;;;;;;;;;;7.60;99.90;;;;;;5340708;26;19930;-80
2024/04/19 02:44:17;;;;;;;;;;;7.60;99.90;;;;;;5314678;26;19941;-79
2024/04/19 02:46:43;;;;;;;;;;;7.60;99.90;;;;;;5290374;26;20313;-79
2024/04/19 02:49:08;;;;;;;;;;;7.60;99.90;;;;;;5307602;26;19957;-79
2024/04/19 02:51:34;;;;;;;;;;;7.50;99.90;;;;;;5338374;26;20680;-79
2024/04/19 02:54:00;;;;;;;;;;;7.40;99.90;;;;;;5294343;26;19930;-79
2024/04/19 02:56:25;;;;;;;;;;;7.30;99.90;;;;;;5307289;26;19938;-80
2024/04/19 02:58:54;;;;;;;;;;;7.30;99.90;;;;;;5307677;26;19930;-79
2024/04/19 03:01:20;;;;;;;;;;;7.20;99.90;;;;;;5293236;26;19930;-79
2024/04/19 03:03:45;;;;;;;;;;;7.10;99.90;;;;;;5315598;26;20001;-79
2024/04/19 03:06:11;;;;;;;;;;;7.00;99.90;;;;;;5318002;26;19929;-79
2024/04/19 03:08:37;;;;;;;;;;;7.00;99.90;;;;;;5322824;26;19933;-80
2024/04/19 03:11:05;;;;;;;;;;;6.90;99.90;;;;;;5345624;26;20382;-79
2024/04/19 03:13:31;;;;;;;;;;;6.90;99.90;;;;;;5289454;26;20000;-79
2024/04/19 03:16:04;;;;;;;;;;;6.70;99.90;;;;;;5299693;26;19930;-80
2024/04/19 03:18:29;;;;;;;;;;;6.70;99.90;;;;;;5314593;26;19938;-79
2024/04/19 03:20:59;;;;;;;;;;;6.70;99.90;;;;;;5312361;26;19930;-79
2024/04/19 03:23:25;;;;;;;;;;;6.70;99.90;;;;;;5289109;26;19936;-80
2024/04/19 03:25:51;;;;;;;;;;;6.70;99.90;;;;;;5289527;26;19930;-79
2024/04/19 03:28:16;;;;;;;;;;;6.60;99.90;;;;;;5318734;26;20255;-79
2024/04/19 03:30:42;;;;;;;;;;;6.60;99.90;;;;;;5288874;26;19937;-79
2024/04/19 03:33:08;;;;;;;;;;;6.70;99.90;;;;;;5318109;26;19931;-79
2024/04/19 03:35:38;;;;;;;;;;;6.70;99.90;;;;;;5323330;26;19930;-79
2024/04/19 03:38:04;;;;;;;;;;;6.60;99.90;;;;;;5329977;26;20270;-79
2024/04/19 03:40:30;;;;;;;;;;;6.70;99.90;;;;;;5289037;26;19930;-79
2024/04/19 03:42:58;;;;;;;;;;;6.60;99.90;;;;;;5328688;26;20291;-79
2024/04/19 03:45:44;;;;;;;;;;;6.70;99.90;;;;;;5351900;26;19941;-79
2024/04/19 03:48:13;;;;;;;;;;;6.70;99.90;;;;;;5323407;26;20261;-79
2024/04/19 03:50:39;;;;;;;;;;;6.70;99.90;;;;;;5311837;26;19954;-79
2024/04/19 03:53:04;;;;;;;;;;;6.70;99.90;;;;;;5288335;26;19941;-79
2024/04/19 03:55:30;;;;;;;;;;;6.70;99.90;;;;;;5288613;26;19937;-79
2024/04/19 03:57:56;;;;;;;;;;;6.70;99.90;;;;;;5316803;26;19946;-79
2024/04/19 04:00:22;;;;;;;;;;;6.60;99.90;;;;;;5343201;26;19937;-79
2024/04/19 04:02:49;;;;;;;;;;;6.60;99.90;;;;;;5316708;26;19930;-79
2024/04/19 04:05:15;;;;;;;;;;;6.60;99.90;;;;;;5319567;26;19977;-79
2024/04/19 04:07:41;;;;;;;;;;;6.60;99.90;;;;;;5288479;26;19969;-80
2024/04/19 04:10:06;;;;;;;;;;;6.50;99.90;;;;;;5304716;26;19930;-79
2024/04/19 04:12:32;;;;;;;;;;;6.50;99.90;;;;;;5259925;26;20578;-79
2024/04/19 04:14:58;;;;;;;;;;;6.50;99.90;;;;;;5288766;26;19940;-79
2024/04/19 04:17:23;;;;;;;;;;;6.40;99.90;;;;;;5288706;26;19989;-79
2024/04/19 04:19:49;;;;;;;;;;;6.40;99.90;;;;;;5287285;26;19930;-79
2024/04/19 04:22:15;;;;;;;;;;;6.30;99.90;;;;;;5316461;26;19930;-79
2024/04/19 04:24:41;;;;;;;;;;;6.30;99.90;;;;;;5316816;26;19938;-79
2024/04/19 04:27:06;;;;;;;;;;;6.30;99.90;;;;;;5337695;26;19937;-79
2024/04/19 04:29:32;;;;;;;;;;;6.20;99.90;;;;;;5287915;26;19934;-79
2024/04/19 04:31:58;;;;;;;;;;;6.20;99.90;;;;;;5288166;26;19930;-78
2024/04/19 04:34:23;;;;;;;;;;;6.20;99.90;;;;;;5287550;26;19930;-79
2024/04/19 04:36:49;;;;;;;;;;;6.20;99.90;;;;;;5287648;26;19930;-79
2024/04/19 04:39:15;;;;;;;;;;;6.10;99.90;;;;;;5320017;26;19955;-78
2024/04/19 04:41:40;;;;;;;;;;;6.00;99.90;;;;;;5322159;26;19930;-78
2024/04/19 04:44:12;;;;;;;;;;;6.00;99.90;;;;;;5322355;26;20335;-79
2024/04/19 04:46:38;;;;;;;;;;;6.10;99.90;;;;;;5327154;26;20342;-79
2024/04/19 04:49:04;;;;;;;;;;;6.00;99.90;;;;;;5289183;26;20026;-79
2024/04/19 04:51:29;;;;;;;;;;;6.00;99.90;;;;;;5315965;26;19980;-78
2024/04/19 04:53:55;;;;;;;;;;;6.10;99.90;;;;;;5287791;26;19930;-79
2024/04/19 04:56:21;;;;;;;;;;;6.00;99.90;;;;;;5298928;26;19930;-79
2024/04/19 04:58:46;;;;;;;;;;;6.00;99.90;;;;;;5277837;26;19930;-79
2024/04/19 05:01:12;;;;;;;;;;;6.10;99.90;;;;;;5287800;26;19931;-79
2024/04/19 05:03:38;;;;;;;;;;;6.10;99.90;;;;;;5315867;26;19937;-79
2024/04/19 05:06:03;;;;;;;;;;;6.10;99.90;;;;;;5293366;26;19930;-79
2024/04/19 05:08:29;;;;;;;;;;;6.10;99.90;;;;;;5287357;26;19930;-79
2024/04/19 05:10:55;;;;;;;;;;;6.00;99.90;;;;;;5287431;26;19934;-79
2024/04/19 05:13:28;;;;;;;;;;;6.10;99.90;;;;;;5286906;26;19937;-79
2024/04/19 05:15:53;;;;;;;;;;;6.10;99.90;;;;;;5317984;26;19936;-79
2024/04/19 05:18:19;;;;;;;;;;;6.10;99.90;;;;;;5297621;26;19930;-79
2024/04/19 05:20:46;;;;;;;;;;;6.10;99.90;;;;;;5324651;26;19930;-79
2024/04/19 05:23:14;;;;;;;;;;;6.10;99.90;;;;;;5316625;26;19989;-79
2024/04/19 05:25:40;;;;;;;;;;;6.10;99.90;;;;;;5302575;26;19936;-79
2024/04/19 05:28:06;;;;;;;;;;;6.10;99.90;;;;;;5287342;26;20258;-79
2024/04/19 05:30:31;;;;;;;;;;;6.10;99.90;;;;;;5260689;26;20009;-79
2024/04/19 05:32:57;;;;;;;;;;;6.10;99.90;;;;;;5302383;26;19939;-79
2024/04/19 05:35:24;;;;;;;;;;;6.10;99.90;;;;;;5335594;26;19930;-79
2024/04/19 05:37:50;;;;;;;;;;;6.20;99.90;;;;;;5318568;26;19930;-79
2024/04/19 05:40:19;;;;;;;;;;;6.10;99.90;;;;;;5318102;26;19930;-78
2024/04/19 05:42:45;;;;;;;;;;;6.10;99.90;;;;;;5353448;26;19937;-79
2024/04/19 05:45:10;;;;;;;;;;;6.20;99.90;;;;;;5384206;26;19995;-78
2024/04/19 05:47:36;;;;;;;;;;;6.10;99.90;;;;;;5324494;26;19929;-78
2024/04/19 05:50:02;;;;;;;;;;;6.10;99.90;;;;;;5324008;26;20354;-79
2024/04/19 05:52:27;;;;;;;;;;;6.10;99.90;;;;;;5289787;26;19930;-79
2024/04/19 05:54:53;;;;;;;;;;;6.00;99.90;;;;;;5348898;26;19954;-79
2024/04/19 05:57:19;;;;;;;;;;;6.00;99.90;;;;;;5318725;26;20262;-79
2024/04/19 05:59:44;;;;;;;;;;;6.10;99.90;;;;;;5290059;26;19936;-79
2024/04/19 06:02:10;;;;;;;;;;;6.00;99.90;;;;;;5299910;26;19946;-79
2024/04/19 06:04:36;;;;;;;;;;;5.90;99.90;;;;;;5290413;26;19957;-79
2024/04/19 06:07:01;;;;;;;;;;;5.90;99.90;;;;;;5318843;26;19937;-79
2024/04/19 06:09:27;;;;;;;;;;;5.90;99.90;;;;;;5261971;26;20230;-79
2024/04/19 06:11:53;;;;;;;;;;;5.80;99.90;;;;;;5319034;26;19958;-79
2024/04/19 06:14:18;;;;;;;;;;;5.90;99.90;;;;;;5317146;26;19930;-79
2024/04/19 06:16:44;;;;;;;;;;;5.90;99.90;;;;;;5327729;26;19938;-79
2024/04/19 06:19:10;;;;;;;;;;;5.80;99.90;;;;;;5310200;26;20334;-80
2024/04/19 06:21:35;;;;;;;;;;;5.90;99.90;;;;;;5289725;26;19930;-80
2024/04/19 06:24:02;;;;;;;;;;;5.80;99.90;;;;;;5298481;26;20309;-80
2024/04/19 06:26:27;;;;;;;;;;;5.80;99.90;;;;;;5295146;26;19992;-80
2024/04/19 06:28:53;;;;;;;;;;;5.80;99.90;;;;;;5290540;26;19942;-80
2024/04/19 06:31:19;;;;;;;;;;;5.80;99.90;;;;;;5317972;26;19976;-80
2024/04/19 06:33:47;;;;;;;;;;;5.90;99.90;;;;;;5297860;26;20439;-81
2024/04/19 06:36:15;;;;;;;;;;;5.80;99.90;;;;;;5324885;26;19937;-80
2024/04/19 06:38:43;;;;;;;;;;;5.70;99.90;;;;;;5318660;26;19995;-80
2024/04/19 06:41:08;;;;;;;;;;;5.70;99.90;;;;;;5304806;26;20351;-81
2024/04/19 06:43:34;;;;;;;;;;;5.70;99.90;;;;;;5339050;26;19944;-81
2024/04/19 06:46:03;;;;;;;;;;;5.70;99.90;;;;;;5289231;26;19972;-81
2024/04/19 06:48:28;;;;;;;;;;;5.60;99.90;;;;;;5334914;26;19966;-80
2024/04/19 06:50:54;;;;;;;;;;;5.70;99.90;;;;;;5317523;26;19930;-81
2024/04/19 06:53:22;;;;;;;;;;;5.60;99.90;;;;;;5328309;26;19930;-80
2024/04/19 06:55:48;;;;;;;;;;;5.50;99.90;;;;;;5269601;26;19995;-81
2024/04/19 06:58:14;;;;;;;;;;;5.50;99.90;;;;;;5319531;26;20264;-80
2024/04/19 07:00:41;;;;;;;;;;;5.50;99.90;;;;;;5303856;26;23658;-80
2024/04/19 07:03:07;;;;;;;;;;;5.60;99.90;;;;;;5293231;26;19930;-80
2024/04/19 07:05:35;;;;;;;;;;;5.60;99.90;;;;;;5289632;26;19930;-80
2024/04/19 07:08:01;;;;;;;;;;;5.60;99.90;;;;;;5318718;26;19956;-80
2024/04/19 07:10:27;;;;;;;;;;;5.60;99.90;;;;;;5264366;26;19930;-80
2024/04/19 07:12:52;;;;;;;;;;;5.60;99.90;;;;;;5344290;26;19937;-80
2024/04/19 07:15:18;;;;;;;;;;;5.60;99.90;;;;;;5337417;26;19933;-80
2024/04/19 07:17:44;;;;;;;;;;;5.60;99.90;;;;;;5381903;26;20339;-80
2024/04/19 07:20:09;;;;;;;;;;;5.70;99.90;;;;;;5324108;26;19936;-80
2024/04/19 07:22:35;;;;;;;;;;;5.60;99.90;;;;;;5323712;26;19996;-80
2024/04/19 07:25:01;;;;;;;;;;;5.60;99.90;;;;;;5345558;26;19930;-80
2024/04/19 07:27:27;;;;;;;;;;;5.70;99.90;;;;;;5317326;26;19930;-79
2024/04/19 07:29:53;;;;;;;;;;;5.70;99.90;;;;;;5295813;26;19934;-80
2024/04/19 07:32:20;;;;;;;;;;;5.70;99.90;;;;;;5325137;26;19969;-80
2024/04/19 07:34:46;;;;;;;;;;;5.60;99.90;;;;;;5346556;26;19938;-80
2024/04/19 07:37:12;;;;;;;;;;;5.70;99.90;;;;;;5349389;26;20345;-80
2024/04/19 07:39:37;;;;;;;;;;;5.70;99.90;;;;;;5261203;26;19930;-80
2024/04/19 07:42:03;;;;;;;;;;;5.60;99.90;;;;;;5348062;26;19930;-80
2024/04/19 07:44:29;;;;;;;;;;;5.50;99.90;;;;;;5298947;26;19959;-79
2024/04/19 07:46:54;;;;;;;;;;;5.60;99.90;;;;;;5317555;26;19937;-79
2024/04/19 07:49:20;;;;;;;;;;;5.60;99.90;;;;;;5271464;26;19930;-80
2024/04/19 07:51:46;;;;;;;;;;;5.60;99.90;;;;;;5317472;26;20270;-80
2024/04/19 07:54:11;;;;;;;;;;;5.50;99.90;;;;;;5289652;26;19998;-80
2024/04/19 07:56:41;;;;;;;;;;;5.60;99.90;;;;;;5317814;26;20135;-80
2024/04/19 07:59:10;;;;;;;;;;;5.60;99.90;;;;;;5318549;26;20262;-80
2024/04/19 08:01:35;;;;;;;;;;;5.60;99.90;;;;;;5261691;26;19930;-80
2024/04/19 08:04:01;;;;;;;;;;;5.60;99.90;;;;;;5318248;26;19941;-80
2024/04/19 08:06:27;;;;;;;;;;;5.60;99.90;;;;;;5261041;26;19941;-80
2024/04/19 08:08:52;;;;;;;;;;;5.60;99.90;;;;;;5289145;26;19930;-80
2024/04/19 08:11:18;;;;;;;;;;;5.60;99.90;;;;;;5295114;26;19930;-80
2024/04/19 08:13:44;;;;;;;;;;;5.60;99.90;;;;;;5328027;26;19956;-80
2024/04/19 08:16:09;;;;;;;;;;;5.60;99.90;;;;;;5326408;26;20345;-80
2024/04/19 08:18:35;;;;;;;;;;;5.60;99.90;;;;;;5343148;26;20262;-79
2024/04/19 08:21:01;;;;;;;;;;;5.60;99.90;;;;;;5273794;26;19942;-79
2024/04/19 08:23:26;;;;;;;;;;;5.60;99.90;;;;;;5347225;26;19937;-80
2024/04/19 08:25:52;;;;;;;;;;;5.60;99.90;;;;;;5334473;26;21233;-80
2024/04/19 08:28:18;;;;;;;;;;;5.60;99.90;;;;;;5323494;26;19930;-80
2024/04/19 08:30:45;;;;;;;;;;;5.60;99.90;;;;;;5294649;26;19937;-78
2024/04/19 08:33:10;;;;;;;;;;;5.60;99.90;;;;;;5319003;26;19942;-80
2024/04/19 08:35:36;;;;;;;;;;;5.60;99.90;;;;;;5318875;26;20012;-80
2024/04/19 08:38:02;;;;;;;;;;;5.50;99.90;;;;;;5329877;26;19930;-80
2024/04/19 08:40:29;;;;;;;;;;;5.50;99.90;;;;;;5330990;26;19937;-80
2024/04/19 08:42:55;;;;;;;;;;;5.50;99.90;;;;;;5318445;26;20266;-80
2024/04/19 08:45:20;;;;;;;;;;;5.50;99.90;;;;;;5285530;26;20405;-80
2024/04/19 08:47:46;;;;;;;;;;;5.50;99.90;;;;;;5318125;26;19936;-80
2024/04/19 08:50:12;;;;;;;;;;;5.60;99.90;;;;;;5362277;26;20350;-80
2024/04/19 08:52:38;;;;;;;;;;;5.60;99.90;;;;;;5305272;26;20392;-81
2024/04/19 08:55:06;;;;;;;;;;;5.60;99.90;;;;;;5320978;26;20358;-79
2024/04/19 08:57:38;;;;;;;;;;;5.60;99.90;;;;;;5318080;26;19930;-80
2024/04/19 09:00:04;;;;;;;;;;;5.60;99.90;;;;;;5318264;26;19938;-80
2024/04/19 09:02:30;;;;;;;;;;;5.60;99.90;;;;;;5288733;26;20349;-80
2024/04/19 09:04:56;;;;;;;;;;;5.60;99.90;;;;;;5318337;26;20021;-80
2024/04/19 09:07:21;;;;;;;;;;;5.60;99.90;;;;;;5320356;26;19942;-80
2024/04/19 09:09:48;;;;;;;;;;;5.70;99.90;;;;;;5320520;26;19937;-80
2024/04/19 09:12:14;;;;;;;;;;;5.70;99.90;;;;;;5305574;26;19930;-80
2024/04/19 09:14:39;;;;;;;;;;;5.70;99.90;;;;;;5295221;26;19930;-80
2024/04/19 09:17:05;;;;;;;;;;;5.80;99.90;;;;;;5315284;26;20371;-79
2024/04/19 09:19:32;;;;;;;;;;;6.00;99.90;;;;;;5348385;26;20343;-79
2024/04/19 09:22:01;;;;;;;;;;;6.20;99.90;;;;;;5312157;26;19930;-80
2024/04/19 09:24:26;;;;;;;;;;;6.30;99.90;;;;;;5296810;26;19937;-80
2024/04/19 09:27:02;;;;;;;;;;;6.40;99.90;;;;;;5291795;26;19929;-80
2024/04/19 09:29:28;;;;;;;;;;;6.40;99.90;;;;;;5320505;26;19942;-79
2024/04/19 09:31:53;;;;;;;;;;;6.40;99.90;;;;;;5296186;26;19930;-79
2024/04/19 09:34:19;;;;;;;;;;;6.40;99.90;;;;;;5319669;26;19933;-79
2024/04/19 09:36:47;;;;;;;;;;;6.40;99.90;;;;;;5347782;26;19930;-79
2024/04/19 09:39:13;;;;;;;;;;;6.50;99.90;;;;;;5326523;26;19940;-80
2024/04/19 09:41:39;;;;;;;;;;;6.60;99.90;;;;;;5354738;26;20337;-79
2024/04/19 09:44:05;;;;;;;;;;;6.60;99.90;;;;;;5307339;26;20552;-79
2024/04/19 09:46:31;;;;;;;;;;;6.50;99.90;;;;;;5295880;26;19938;-79
2024/04/19 09:48:57;;;;;;;;;;;6.50;99.90;;;;;;5354397;26;20344;-80
2024/04/19 09:51:24;;;;;;;;;;;6.50;99.90;;;;;;5343347;26;20337;-79
2024/04/19 09:53:52;;;;;;;;;;;6.60;99.90;;;;;;5319399;26;19930;-79
2024/04/19 09:56:38;;;;;;;;;;;6.70;99.90;;;;;;5291600;26;19930;-79
2024/04/19 09:59:04;;;;;;;;;;;6.80;99.90;;;;;;5320209;26;19934;-80
2024/04/19 10:01:30;;;;;;;;;;;6.80;99.90;;;;;;5263782;26;19937;-79
2024/04/19 10:03:55;;;;;;;;;;;6.80;99.90;;;;;;5291473;26;19930;-79
2024/04/19 10:06:23;;;;;;;;;;;6.80;99.90;;;;;;5327592;26;19940;-79
2024/04/19 10:08:49;;;;;;;;;;;6.80;99.90;;;;;;5321488;26;20001;-79
2024/04/19 10:11:15;;;;;;;;;;;6.90;99.90;;;;;;5302184;26;19966;-80
2024/04/19 10:13:40;;;;;;;;;;;6.90;99.90;;;;;;5346199;26;19995;-79
2024/04/19 10:16:06;;;;;;;;;;;7.00;99.90;;;;;;5346697;26;19937;-79
2024/04/19 10:18:38;;;;;;;;;;;7.10;99.90;;;;;;5289866;26;19958;-80
2024/04/19 10:21:04;;;;;;;;;;;7.10;99.90;;;;;;5275533;27;19930;-80
2024/04/19 10:23:31;;;;;;;;;;;7.20;99.90;;;;;;5265893;27;19937;-79
2024/04/19 10:25:58;;;;;;;;;;;7.20;99.90;;;;;;5256628;27;19930;-79
2024/04/19 10:28:31;;;;;;;;;;;7.20;99.90;;;;;;5284470;27;20059;-80
2024/04/19 10:30:58;;;;;;;;;;;7.10;99.90;;;;;;5267356;27;20351;-79
2024/04/19 10:33:25;;;;;;;;;;;7.20;99.90;;;;;;5283956;27;19958;-80
2024/04/19 10:35:52;;;;;;;;;;;7.20;99.90;;;;;;5275824;26;19930;-80
2024/04/19 10:38:19;;;;;;;;;;;7.20;99.90;;;;;;5312279;27;20264;-80
2024/04/19 10:40:46;;;;;;;;;;;7.40;99.90;;;;;;5284229;27;19963;-80
2024/04/19 10:43:13;;;;;;;;;;;7.50;99.90;;;;;;5273950;26;19937;-80
2024/04/19 10:45:40;;;;;;;;;;;7.50;99.90;;;;;;5284343;27;19931;-80
2024/04/19 10:48:07;;;;;;;;;;;7.60;99.90;;;;;;5312820;26;19937;-79
2024/04/19 10:50:34;;;;;;;;;;;7.60;99.90;;;;;;5312426;27;19930;-79
2024/04/19 10:53:00;;;;;;;;;;;7.70;99.90;;;;;;5298802;26;19930;-80
2024/04/19 10:55:28;;;;;;;;;;;7.70;99.90;;;;;;5318778;26;19937;-80
2024/04/19 10:57:57;;;;;;;;;;;7.70;99.90;;;;;;5291701;27;19942;-79
2024/04/19 11:00:26;;;;;;;;;;;7.70;99.90;;;;;;5287787;26;19930;-79
2024/04/19 11:03:01;;;;;;;;;;;7.70;99.90;;;;;;5308311;27;19938;-79
2024/04/19 11:05:28;;;;;;;;;;;7.70;99.90;;;;;;5286813;27;19942;-79
2024/04/19 11:07:55;;;;;;;;;;;7.70;99.90;;;;;;5272572;27;19939;-79
2024/04/19 11:10:21;;;;;;;;;;;7.80;99.90;;;;;;5256285;27;19938;-79
2024/04/19 11:12:49;;;;;;;;;;;7.80;99.90;;;;;;5277678;27;20008;-79
2024/04/19 11:15:15;;;;;;;;;;;7.80;99.90;;;;;;5269044;26;20693;-80
2024/04/19 11:17:42;;;;;;;;;;;7.80;99.90;;;;;;5290716;26;19930;-80
2024/04/19 11:20:09;;;;;;;;;;;7.70;99.90;;;;;;5283798;27;19937;-80
2024/04/19 11:22:37;;;;;;;;;;;7.90;99.90;;;;;;5255779;27;20287;-78
2024/04/19 11:25:04;;;;;;;;;;;8.00;99.90;;;;;;5283255;27;19931;-78
2024/04/19 11:27:34;;;;;;;;;;;8.10;99.90;;;;;;5283145;27;20347;-78
2024/04/19 11:30:01;;;;;;;;;;;8.10;99.90;;;;;;5254819;27;19938;-77
2024/04/19 11:32:29;;;;;;;;;;;8.10;99.90;;;;;;5283487;27;20355;-78
2024/04/19 11:34:58;;;;;;;;;;;8.20;99.90;;;;;;5257204;27;19998;-77
2024/04/19 11:37:26;;;;;;;;;;;8.40;99.90;;;;;;5282886;27;19942;-77
2024/04/19 11:39:53;;;;;;;;;;;8.70;99.90;;;;;;5254941;27;20400;-77
2024/04/19 11:42:22;;;;;;;;;;;8.90;99.90;;;;;;5288680;26;19938;-78
2024/04/19 11:44:52;;;;;;;;;;;9.20;99.90;;;;;;5289545;26;19930;-78
2024/04/19 11:47:22;;;;;;;;;;;9.30;99.90;;;;;;5291908;26;20355;-78
2024/04/19 11:49:49;;;;;;;;;;;9.20;99.90;;;;;;5276198;26;19962;-78
2024/04/19 11:52:16;;;;;;;;;;;9.70;99.90;;;;;;5254894;27;19931;-78
2024/04/19 11:54:48;;;;;;;;;;;9.90;99.90;;;;;;5255296;27;19960;-78
2024/04/19 11:57:15;;;;;;;;;;;9.80;99.90;;;;;;5283204;27;20239;-78
2024/04/19 11:59:42;;;;;;;;;;;9.80;99.90;;;;;;5303375;26;19930;-78
2024/04/19 12:02:09;;;;;;;;;;;9.80;99.90;;;;;;5282731;27;20233;-77
2024/04/19 12:04:36;;;;;;;;;;;9.70;99.90;;;;;;5254318;27;19959;-78
2024/04/19 12:07:03;;;;;;;;;;;9.80;99.90;;;;;;5266522;27;19938;-77
2024/04/19 12:09:32;;;;;;;;;;;10.00;99.90;;;;;;5282903;27;19931;-77
2024/04/19 12:12:03;;;;;;;;;;;10.10;99.90;;;;;;5227800;27;19930;-77
2024/04/19 12:14:34;;;;;;;;;;;10.20;99.90;;;;;;5245181;27;19937;-77
2024/04/19 12:17:07;;;;;;;;;;;10.20;99.90;;;;;;5254806;27;19937;-77
2024/04/19 12:19:33;;;;;;;;;;;10.20;99.90;;;;;;5292162;26;19930;-77
2024/04/19 12:21:59;;;;;;;;;;;10.20;99.90;;;;;;5253956;27;19997;-78
2024/04/19 12:24:25;;;;;;;;;;;10.20;99.90;;;;;;5266697;27;20346;-77
2024/04/19 12:26:51;;;;;;;;;;;10.20;99.90;;;;;;5226583;27;19931;-77
2024/04/19 12:29:16;;;;;;;;;;;10.30;99.90;;;;;;5302596;26;19930;-78
2024/04/19 12:31:42;;;;;;;;;;;10.40;99.90;;;;;;5316868;26;19930;-78
2024/04/19 12:34:08;;;;;;;;;;;10.50;99.90;;;;;;5311031;27;19937;-78
2024/04/19 12:36:34;;;;;;;;;;;10.40;99.90;;;;;;5254869;27;19997;-78
2024/04/19 12:39:00;;;;;;;;;;;10.50;99.90;;;;;;5282412;27;20307;-78
2024/04/19 12:41:28;;;;;;;;;;;10.40;99.90;;;;;;5260405;26;19938;-78
2024/04/19 12:43:54;;;;;;;;;;;10.30;99.90;;;;;;5291198;26;19958;-78
2024/04/19 12:46:21;;;;;;;;;;;10.30;99.90;;;;;;5290366;26;19930;-78
2024/04/19 12:48:47;;;;;;;;;;;10.40;99.90;;;;;;5313444;27;19958;-77
2024/04/19 12:51:27;;;;;;;;;;;10.40;99.90;;;;;;5322700;26;20300;-77
2024/04/19 12:54:01;;;;;;;;;;;10.50;99.90;;;;;;5292266;26;20127;-78
2024/04/19 12:56:28;;;;;;;;;;;10.60;99.90;;;;;;5285275;27;19938;-78
2024/04/19 12:58:57;;;;;;;;;;;10.50;99.90;;;;;;5278515;27;19938;-78
2024/04/19 13:01:27;;;;;;;;;;;10.50;99.90;;;;;;5297727;26;19943;-78
2024/04/19 13:03:55;;;;;;;;;;;10.30;99.90;;;;;;5263489;26;20311;-78
2024/04/19 13:06:25;;;;;;;;;;;10.30;99.90;;;;;;5290258;26;19932;-77
2024/04/19 13:08:55;;;;;;;;;;;10.20;99.90;;;;;;5290137;26;19980;-77
2024/04/19 13:11:25;;;;;;;;;;;10.20;99.90;;;;;;5313501;27;19931;-79
2024/04/19 13:13:52;;;;;;;;;;;10.10;99.90;;;;;;5282204;27;19959;-80
2024/04/19 13:16:20;;;;;;;;;;;10.10;99.90;;;;;;5308344;27;19998;-79
2024/04/19 13:18:47;;;;;;;;;;;10.00;99.90;;;;;;5286609;26;19939;-79
2024/04/19 13:21:14;;;;;;;;;;;9.80;99.90;;;;;;5284371;26;19931;-79
2024/04/19 13:23:41;;;;;;;;;;;9.70;99.90;;;;;;5290033;26;19996;-79
2024/04/19 13:26:10;;;;;;;;;;;9.60;99.90;;;;;;5307389;27;19981;-79
2024/04/19 13:28:39;;;;;;;;;;;9.40;99.90;;;;;;5235533;26;19939;-78
2024/04/19 13:31:06;;;;;;;;;;;9.30;99.90;;;;;;5310746;26;19937;-79
2024/04/19 13:33:33;;;;;;;;;;;9.50;99.90;;;;;;5312883;27;19931;-79
2024/04/19 13:36:00;;;;;;;;;;;9.60;99.90;;;;;;5260009;26;19961;-79
2024/04/19 13:38:27;;;;;;;;;;;9.50;99.90;;;;;;5285575;27;19930;-79
2024/04/19 13:40:54;;;;;;;;;;;9.50;99.90;;;;;;5285651;27;19931;-79
2024/04/19 13:43:21;;;;;;;;;;;9.50;99.90;;;;;;5269264;27;19930;-79
2024/04/19 13:45:49;;;;;;;;;;;9.60;99.90;;;;;;5276785;27;20012;-80
2024/04/19 13:48:16;;;;;;;;;;;9.60;99.90;;;;;;5230433;27;19937;-80
2024/04/19 13:50:48;;;;;;;;;;;9.70;99.90;;;;;;5290605;27;20278;-77
2024/04/19 13:53:15;;;;;;;;;;;9.80;99.90;;;;;;5283526;27;19930;-77
2024/04/19 13:55:44;;;;;;;;;;;9.90;99.90;;;;;;5284194;27;19938;-78
2024/04/19 13:58:11;;;;;;;;;;;9.80;99.90;;;;;;5267034;27;19935;-78
2024/04/19 14:00:38;;;;;;;;;;;9.90;99.90;;;;;;5284977;27;20307;-80
2024/04/19 14:03:05;;;;;;;;;;;10.00;99.90;;;;;;5311975;27;19930;-80
2024/04/19 14:05:32;;;;;;;;;;;10.00;99.90;;;;;;5292778;27;19931;-80
2024/04/19 14:07:59;;;;;;;;;;;10.20;99.90;;;;;;5278741;26;19941;-79
2024/04/19 14:10:27;;;;;;;;;;;10.40;99.90;;;;;;5305566;26;19978;-80
2024/04/19 14:12:57;;;;;;;;;;;10.50;99.90;;;;;;5283256;27;19958;-80
2024/04/19 14:15:24;;;;;;;;;;;10.50;99.90;;;;;;5282602;27;20343;-80
2024/04/19 14:17:54;;;;;;;;;;;10.50;99.90;;;;;;5284388;27;19938;-80
2024/04/19 14:20:24;;;;;;;;;;;10.50;99.90;;;;;;5295058;27;19942;-80
2024/04/19 14:22:51;;;;;;;;;;;10.50;99.90;;;;;;5229947;26;19941;-80
2024/04/19 14:25:18;;;;;;;;;;;10.40;99.90;;;;;;5299760;27;19931;-80
2024/04/19 14:27:46;;;;;;;;;;;10.30;99.90;;;;;;5311865;27;19937;-80